sensor_id;sensor_type;location;lat;lon;timestamp;pressure;altitude;pressure_sealevel;temperature;humidity
10310;BME280;5200;43.236;27.986;2023-03-01T00:00:52;101034.63;;;3.24;100.00
10310;BME280;5200;43.236;27.986;2023-03-01T00:03:20;101031.38;;;3.19;100.00
10310;BME280;5200;43.236;27.986;2023-03-01T00:05:47;101034.91;;;3.18;100.00
10310;BME280;5200;43.236;27.986;2023-03-01T00:08:14;101028.00;;;3.17;100.00
10310;BME280;5200;43.236;27.986;2023-03-01T00:10:40;101041.00;;;3.17;100.00
10310;BME280;5200;43.236;27.986;2023-03-01T00:13:07;101019.09;;;3.02;100.00
10310;BME280;5200;43.236;27.986;2023-03-01T00:15:38;101045.34;;;3.16;100.00
10310;BME280;5200;43.236;27.986;2023-03-01T00:18:05;101037.16;;;3.05;100.00
10310;BME280;5200;43.236;27.986;2023-03-01T00:20:33;101052.31;;;3.16;100.00
10310;BME280;5200;43.236;27.986;2023-03-01T00:23:00;101064.53;;;3.14;100.00
10310;BME280;5200;43.236;27.986;2023-03-01T00:25:26;101052.72;;;3.07;100.00
10310;BME280;5200;43.236;27.986;2023-03-01T00:27:53;101049.31;;;3.05;100.00
10310;BME280;5200;43.236;27.986;2023-03-01T00:30:20;101032.22;;;2.99;100.00
10310;BME280;5200;43.236;27.986;2023-03-01T00:32:47;101040.88;;;3.00;100.00
10310;BME280;5200;43.236;27.986;2023-03-01T00:35:14;101020.59;;;2.87;100.00
10310;BME280;5200;43.236;27.986;2023-03-01T00:37:42;101031.78;;;2.89;100.00
10310;BME280;5200;43.236;27.986;2023-03-01T00:40:10;101028.66;;;3.02;100.00
10310;BME280;5200;43.236;27.986;2023-03-01T00:42:37;100991.22;;;2.85;100.00
10310;BME280;5200;43.236;27.986;2023-03-01T00:45:05;101006.53;;;2.91;100.00
10310;BME280;5200;43.236;27.986;2023-03-01T00:47:33;100985.47;;;2.77;100.00
10310;BME280;5200;43.236;27.986;2023-03-01T00:50:00;100982.09;;;2.75;100.00
10310;BME280;5200;43.236;27.986;2023-03-01T00:52:26;101017.66;;;2.95;100.00
10310;BME280;5200;43.236;27.986;2023-03-01T00:54:55;100980.34;;;2.75;100.00
10310;BME280;5200;43.236;27.986;2023-03-01T00:57:23;101014.28;;;2.93;100.00
10310;BME280;5200;43.236;27.986;2023-03-01T00:59:50;100967.66;;;2.68;100.00
10310;BME280;5200;43.236;27.986;2023-03-01T01:02:17;100986.41;;;2.76;100.00
10310;BME280;5200;43.236;27.986;2023-03-01T01:04:44;100996.31;;;2.87;100.00
10310;BME280;5200;43.236;27.986;2023-03-01T01:07:12;100997.84;;;2.92;100.00
10310;BME280;5200;43.236;27.986;2023-03-01T01:09:39;101003.09;;;2.91;100.00
10310;BME280;5200;43.236;27.986;2023-03-01T01:12:09;101009.28;;;2.88;100.00
10310;BME280;5200;43.236;27.986;2023-03-01T01:14:38;100968.53;;;2.68;100.00
10310;BME280;5200;43.236;27.986;2023-03-01T01:17:05;100959.63;;;2.74;100.00
10310;BME280;5200;43.236;27.986;2023-03-01T01:19:32;101003.09;;;2.91;100.00
10310;BME280;5200;43.236;27.986;2023-03-01T01:22:01;100989.13;;;2.93;100.00
10310;BME280;5200;43.236;27.986;2023-03-01T01:24:28;101000.44;;;2.92;100.00
10310;BME280;5200;43.236;27.986;2023-03-01T01:26:55;100990.88;;;2.93;100.00
10310;BME280;5200;43.236;27.986;2023-03-01T01:29:23;100999.41;;;2.96;100.00
10310;BME280;5200;43.236;27.986;2023-03-01T01:31:50;100981.47;;;2.90;100.00
10310;BME280;5200;43.236;27.986;2023-03-01T01:34:19;101002.84;;;2.97;100.00
10310;BME280;5200;43.236;27.986;2023-03-01T01:36:48;100984.31;;;2.84;100.00
10310;BME280;5200;43.236;27.986;2023-03-01T01:39:15;100964.44;;;2.83;100.00
10310;BME280;5200;43.236;27.986;2023-03-01T01:41:42;100978.84;;;2.90;100.00
10310;BME280;5200;43.236;27.986;2023-03-01T01:44:16;100977.03;;;2.92;100.00
10310;BME280;5200;43.236;27.986;2023-03-01T01:46:47;100962.09;;;2.77;100.00
10310;BME280;5200;43.236;27.986;2023-03-01T01:49:30;100973.53;;;2.93;100.00
10310;BME280;5200;43.236;27.986;2023-03-01T01:52:05;100969.50;;;2.86;100.00
10310;BME280;5200;43.236;27.986;2023-03-01T01:54:40;100953.41;;;2.78;100.00
10310;BME280;5200;43.236;27.986;2023-03-01T01:57:12;100963.78;;;2.78;100.00
10310;BME280;5200;43.236;27.986;2023-03-01T01:59:43;100987.31;;;2.95;100.00
10310;BME280;5200;43.236;27.986;2023-03-01T02:02:13;100962.81;;;2.81;100.00
10310;BME280;5200;43.236;27.986;2023-03-01T02:04:41;100961.69;;;2.86;100.00
10310;BME280;5200;43.236;27.986;2023-03-01T02:07:13;100937.22;;;2.71;100.00
10310;BME280;5200;43.236;27.986;2023-03-01T02:09:42;100945.47;;;2.81;100.00
10310;BME280;5200;43.236;27.986;2023-03-01T02:12:12;100972.63;;;2.94;100.00
10310;BME280;5200;43.236;27.986;2023-03-01T02:14:40;100965.31;;;2.82;100.00
10310;BME280;5200;43.236;27.986;2023-03-01T02:17:06;100975.22;;;2.94;100.00
10310;BME280;5200;43.236;27.986;2023-03-01T02:19:42;100956.78;;;2.80;100.00
10310;BME280;5200;43.236;27.986;2023-03-01T02:22:18;100958.59;;;2.78;100.00
10310;BME280;5200;43.236;27.986;2023-03-01T02:24:55;100978.53;;;2.78;100.00
10310;BME280;5200;43.236;27.986;2023-03-01T02:27:30;100960.78;;;2.67;100.00
10310;BME280;5200;43.236;27.986;2023-03-01T02:30:01;100990.44;;;2.83;100.00
10310;BME280;5200;43.236;27.986;2023-03-01T02:32:28;100994.69;;;2.84;100.00
10310;BME280;5200;43.236;27.986;2023-03-01T02:34:55;100981.72;;;2.84;100.00
10310;BME280;5200;43.236;27.986;2023-03-01T02:37:24;100961.72;;;2.66;100.00
10310;BME280;5200;43.236;27.986;2023-03-01T02:39:56;100992.19;;;2.83;100.00
10310;BME280;5200;43.236;27.986;2023-03-01T02:42:28;100979.38;;;2.78;100.00
10310;BME280;5200;43.236;27.986;2023-03-01T02:44:57;100969.50;;;2.66;100.00
10310;BME280;5200;43.236;27.986;2023-03-01T02:47:25;100990.63;;;2.79;100.00
10310;BME280;5200;43.236;27.986;2023-03-01T02:49:52;100981.63;;;2.65;100.00
10310;BME280;5200;43.236;27.986;2023-03-01T02:52:29;100969.56;;;2.64;100.00
10310;BME280;5200;43.236;27.986;2023-03-01T02:55:01;101008.75;;;2.80;100.00
10310;BME280;5200;43.236;27.986;2023-03-01T02:57:31;100975.47;;;2.68;100.00
10310;BME280;5200;43.236;27.986;2023-03-01T03:00:02;101007.06;;;2.79;100.00
10310;BME280;5200;43.236;27.986;2023-03-01T03:02:34;101003.81;;;2.74;100.00
10310;BME280;5200;43.236;27.986;2023-03-01T03:05:07;100982.75;;;2.60;100.00
10310;BME280;5200;43.236;27.986;2023-03-01T03:07:37;100988.41;;;2.69;100.00
10310;BME280;5200;43.236;27.986;2023-03-01T03:10:07;100998.75;;;2.71;100.00
10310;BME280;5200;43.236;27.986;2023-03-01T03:12:36;101001.25;;;2.72;100.00
10310;BME280;5200;43.236;27.986;2023-03-01T03:15:04;101023.97;;;2.89;100.00
10310;BME280;5200;43.236;27.986;2023-03-01T03:17:35;101025.66;;;2.90;100.00
10310;BME280;5200;43.236;27.986;2023-03-01T03:20:04;101000.19;;;2.78;100.00
10310;BME280;5200;43.236;27.986;2023-03-01T03:22:31;101007.41;;;2.92;100.00
10310;BME280;5200;43.236;27.986;2023-03-01T03:24:59;100999.38;;;2.76;100.00
10310;BME280;5200;43.236;27.986;2023-03-01T03:27:27;101024.09;;;2.86;100.00
10310;BME280;5200;43.236;27.986;2023-03-01T03:29:54;101008.38;;;2.89;100.00
10310;BME280;5200;43.236;27.986;2023-03-01T03:32:21;101000.78;;;2.85;100.00
10310;BME280;5200;43.236;27.986;2023-03-01T03:34:49;101006.53;;;2.91;100.00
10310;BME280;5200;43.236;27.986;2023-03-01T03:37:15;101012.50;;;2.93;100.00
10310;BME280;5200;43.236;27.986;2023-03-01T03:39:56;101010.06;;;2.90;100.00
10310;BME280;5200;43.236;27.986;2023-03-01T03:42:23;101010.06;;;2.90;100.00
10310;BME280;5200;43.236;27.986;2023-03-01T03:44:50;101005.88;;;2.86;100.00
10310;BME280;5200;43.236;27.986;2023-03-01T03:47:17;101018.50;;;2.95;100.00
10310;BME280;5200;43.236;27.986;2023-03-01T03:49:43;100989.50;;;2.84;100.00
10310;BME280;5200;43.236;27.986;2023-03-01T03:52:12;100989.06;;;2.95;100.00
10310;BME280;5200;43.236;27.986;2023-03-01T03:54:39;100988.16;;;2.96;100.00
10310;BME280;5200;43.236;27.986;2023-03-01T03:57:09;100979.50;;;2.95;100.00
10310;BME280;5200;43.236;27.986;2023-03-01T03:59:36;100971.84;;;2.92;100.00
10310;BME280;5200;43.236;27.986;2023-03-01T04:02:05;100962.53;;;2.87;100.00
10310;BME280;5200;43.236;27.986;2023-03-01T04:04:34;100983.63;;;3.01;100.00
10310;BME280;5200;43.236;27.986;2023-03-01T04:07:01;100971.47;;;3.02;100.00
10310;BME280;5200;43.236;27.986;2023-03-01T04:09:29;100980.88;;;3.04;100.00
10310;BME280;5200;43.236;27.986;2023-03-01T04:11:56;100959.25;;;3.04;100.00
10310;BME280;5200;43.236;27.986;2023-03-01T04:14:23;100965.97;;;3.08;100.00
10310;BME280;5200;43.236;27.986;2023-03-01T04:16:50;100979.91;;;3.07;100.00
10310;BME280;5200;43.236;27.986;2023-03-01T04:19:16;100946.50;;;2.97;100.00
10310;BME280;5200;43.236;27.986;2023-03-01T04:21:43;100933.63;;;2.94;100.00
10310;BME280;5200;43.236;27.986;2023-03-01T04:24:10;100962.47;;;3.09;100.00
10310;BME280;5200;43.236;27.986;2023-03-01T04:26:39;100959.94;;;3.07;100.00
10310;BME280;5200;43.236;27.986;2023-03-01T04:29:06;100943.13;;;2.95;100.00
10310;BME280;5200;43.236;27.986;2023-03-01T04:31:33;100965.91;;;3.09;100.00
10310;BME280;5200;43.236;27.986;2023-03-01T04:33:59;100964.16;;;3.10;100.00
10310;BME280;5200;43.236;27.986;2023-03-01T04:36:28;100957.81;;;2.96;100.00
10310;BME280;5200;43.236;27.986;2023-03-01T04:38:55;100976.53;;;3.05;100.00
10310;BME280;5200;43.236;27.986;2023-03-01T04:41:24;100979.91;;;3.07;100.00
10310;BME280;5200;43.236;27.986;2023-03-01T04:43:52;100966.59;;;2.94;100.00
10310;BME280;5200;43.236;27.986;2023-03-01T04:46:20;100989.31;;;3.09;100.00
10310;BME280;5200;43.236;27.986;2023-03-01T04:48:47;100984.06;;;3.11;100.00
10310;BME280;5200;43.236;27.986;2023-03-01T04:51:14;100983.28;;;3.09;100.00
10310;BME280;5200;43.236;27.986;2023-03-01T04:53:42;100979.91;;;3.07;100.00
10310;BME280;5200;43.236;27.986;2023-03-01T04:56:09;100984.84;;;3.13;100.00
10310;BME280;5200;43.236;27.986;2023-03-01T04:58:36;100971.91;;;3.11;100.00
10310;BME280;5200;43.236;27.986;2023-03-01T05:01:09;100983.00;;;3.15;100.00
10310;BME280;5200;43.236;27.986;2023-03-01T05:03:40;100965.09;;;3.09;100.00
10310;BME280;5200;43.236;27.986;2023-03-01T05:06:07;100949.88;;;3.00;100.00
10310;BME280;5200;43.236;27.986;2023-03-01T05:08:34;100965.00;;;3.10;100.00
10310;BME280;5200;43.236;27.986;2023-03-01T05:11:03;100974.44;;;3.13;100.00
10310;BME280;5200;43.236;27.986;2023-03-01T05:13:31;100966.69;;;3.11;100.00
10310;BME280;5200;43.236;27.986;2023-03-01T05:16:00;100973.56;;;3.12;100.00
10310;BME280;5200;43.236;27.986;2023-03-01T05:18:29;100935.00;;;2.83;100.00
10310;BME280;5200;43.236;27.986;2023-03-01T05:21:03;100971.91;;;3.11;100.00
10310;BME280;5200;43.236;27.986;2023-03-01T05:23:31;100969.34;;;3.10;100.00
10310;BME280;5200;43.236;27.986;2023-03-01T05:25:58;100978.22;;;3.06;100.00
10310;BME280;5200;43.236;27.986;2023-03-01T05:28:26;100963.56;;;3.03;100.00
10310;BME280;5200;43.236;27.986;2023-03-01T05:30:54;100982.31;;;3.11;100.00
10310;BME280;5200;43.236;27.986;2023-03-01T05:33:21;100976.06;;;3.15;100.00
10310;BME280;5200;43.236;27.986;2023-03-01T05:35:53;100978.47;;;3.20;100.00
10310;BME280;5200;43.236;27.986;2023-03-01T05:38:20;100975.88;;;3.20;100.00
10310;BME280;5200;43.236;27.986;2023-03-01T05:40:48;100949.72;;;3.03;100.00
10310;BME280;5200;43.236;27.986;2023-03-01T05:43:16;100983.59;;;3.22;100.00
10310;BME280;5200;43.236;27.986;2023-03-01T05:45:43;100972.03;;;3.08;100.00
10310;BME280;5200;43.236;27.986;2023-03-01T05:48:11;100985.69;;;3.13;100.00
10310;BME280;5200;43.236;27.986;2023-03-01T05:50:42;100994.81;;;3.22;100.00
10310;BME280;5200;43.236;27.986;2023-03-01T05:53:11;100981.91;;;3.21;100.00
10310;BME280;5200;43.236;27.986;2023-03-01T05:55:39;100976.63;;;3.22;100.00
10310;BME280;5200;43.236;27.986;2023-03-01T05:58:09;100974.88;;;3.23;100.00
10310;BME280;5200;43.236;27.986;2023-03-01T06:00:36;100981.63;;;3.27;100.00
10310;BME280;5200;43.236;27.986;2023-03-01T06:03:03;100979.22;;;3.22;100.00
10310;BME280;5200;43.236;27.986;2023-03-01T06:05:30;100979.09;;;3.25;100.00
10310;BME280;5200;43.236;27.986;2023-03-01T06:08:15;100968.38;;;3.12;100.00
10310;BME280;5200;43.236;27.986;2023-03-01T06:10:42;100944.63;;;3.01;100.00
10310;BME280;5200;43.236;27.986;2023-03-01T06:13:09;100983.47;;;3.25;100.00
10310;BME280;5200;43.236;27.986;2023-03-01T06:15:36;100945.91;;;3.11;100.00
10310;BME280;5200;43.236;27.986;2023-03-01T06:18:03;100971.16;;;3.28;100.00
10310;BME280;5200;43.236;27.986;2023-03-01T06:20:30;100975.59;;;3.26;100.00
10310;BME280;5200;43.236;27.986;2023-03-01T06:22:57;100976.75;;;3.39;100.00
10310;BME280;5200;43.236;27.986;2023-03-01T06:25:27;100979.06;;;3.46;100.00
10310;BME280;5200;43.236;27.986;2023-03-01T06:27:54;100982.59;;;3.45;100.00
10310;BME280;5200;43.236;27.986;2023-03-01T06:30:22;100964.78;;;3.35;100.00
10310;BME280;5200;43.236;27.986;2023-03-01T06:32:49;100976.59;;;3.43;100.00
10310;BME280;5200;43.236;27.986;2023-03-01T06:35:18;100978.00;;;3.50;100.00
10310;BME280;5200;43.236;27.986;2023-03-01T06:37:45;100971.81;;;3.52;100.00
10310;BME280;5200;43.236;27.986;2023-03-01T06:40:13;100975.84;;;3.59;100.00
10310;BME280;5200;43.236;27.986;2023-03-01T06:42:43;100962.97;;;3.56;100.00
10310;BME280;5200;43.236;27.986;2023-03-01T06:45:10;100975.78;;;3.61;100.00
10310;BME280;5200;43.236;27.986;2023-03-01T06:47:37;100983.72;;;3.58;100.00
10310;BME280;5200;43.236;27.986;2023-03-01T06:50:04;100975.84;;;3.59;100.00
10310;BME280;5200;43.236;27.986;2023-03-01T06:52:31;100960.72;;;3.49;100.00
10310;BME280;5200;43.236;27.986;2023-03-01T06:57:29;100953.81;;;3.48;100.00
10310;BME280;5200;43.236;27.986;2023-03-01T06:59:57;100981.81;;;3.62;100.00
10310;BME280;5200;43.236;27.986;2023-03-01T07:02:24;100957.53;;;3.42;100.00
10310;BME280;5200;43.236;27.986;2023-03-01T07:04:51;100973.72;;;3.49;100.00
10310;BME280;5200;43.236;27.986;2023-03-01T07:07:18;100989.91;;;3.55;100.00
10310;BME280;5200;43.236;27.986;2023-03-01T07:09:45;100979.72;;;3.51;100.00
10310;BME280;5200;43.236;27.986;2023-03-01T07:12:12;100978.72;;;3.53;100.00
10310;BME280;5200;43.236;27.986;2023-03-01T07:14:39;100972.53;;;3.56;100.00
10310;BME280;5200;43.236;27.986;2023-03-01T07:17:07;100960.72;;;3.49;100.00
10310;BME280;5200;43.236;27.986;2023-03-01T07:19:34;100972.25;;;3.62;100.00
10310;BME280;5200;43.236;27.986;2023-03-01T07:22:01;100966.22;;;3.62;100.00
10310;BME280;5200;43.236;27.986;2023-03-01T07:24:29;100979.84;;;3.67;100.00
10310;BME280;5200;43.236;27.986;2023-03-01T07:26:56;100975.50;;;3.67;100.00
10310;BME280;5200;43.236;27.986;2023-03-01T07:29:23;100974.00;;;3.62;100.00
10310;BME280;5200;43.236;27.986;2023-03-01T07:31:50;100968.91;;;3.60;100.00
10310;BME280;5200;43.236;27.986;2023-03-01T07:34:18;100976.69;;;3.60;100.00
10310;BME280;5200;43.236;27.986;2023-03-01T07:36:45;100979.50;;;3.55;100.00
10310;BME280;5200;43.236;27.986;2023-03-01T14:01:29;100784.66;;;4.70;100.00
10310;BME280;5200;43.236;27.986;2023-03-01T14:03:56;100789.56;;;4.76;100.00
10310;BME280;5200;43.236;27.986;2023-03-01T14:06:25;100776.91;;;4.52;100.00
10310;BME280;5200;43.236;27.986;2023-03-01T14:09:01;100783.19;;;4.48;100.00
10310;BME280;5200;43.236;27.986;2023-03-01T14:14:42;100756.66;;;4.07;100.00
10310;BME280;5200;43.236;27.986;2023-03-01T14:17:32;100791.56;;;4.20;100.00
10310;BME280;5200;43.236;27.986;2023-03-01T14:20:10;100760.34;;;4.02;100.00
10310;BME280;5200;43.236;27.986;2023-03-01T14:22:40;100787.53;;;4.14;100.00
10310;BME280;5200;43.236;27.986;2023-03-01T14:25:20;100791.97;;;4.12;100.00
10310;BME280;5200;43.236;27.986;2023-03-01T14:27:55;100779.13;;;4.09;100.00
10310;BME280;5200;43.236;27.986;2023-03-01T14:30:24;100766.06;;;3.92;100.00
10310;BME280;5200;43.236;27.986;2023-03-01T14:32:54;100760.63;;;3.96;100.00
10310;BME280;5200;43.236;27.986;2023-03-01T14:35:24;100751.63;;;3.86;100.00
10310;BME280;5200;43.236;27.986;2023-03-01T14:37:51;100752.00;;;3.96;100.00
10310;BME280;5200;43.236;27.986;2023-03-01T14:40:24;100768.69;;;4.09;100.00
10310;BME280;5200;43.236;27.986;2023-03-01T14:42:52;100789.97;;;4.17;100.00
10310;BME280;5200;43.236;27.986;2023-03-01T14:45:19;100789.19;;;4.15;100.00
10310;BME280;5200;43.236;27.986;2023-03-01T14:47:46;100763.63;;;3.89;100.00
10310;BME280;5200;43.236;27.986;2023-03-01T14:50:24;100788.44;;;4.13;100.00
10310;BME280;5200;43.236;27.986;2023-03-01T14:52:54;100792.28;;;4.23;100.00
10310;BME280;5200;43.236;27.986;2023-03-01T14:55:26;100781.09;;;4.04;100.00
10310;BME280;5200;43.236;27.986;2023-03-01T14:57:54;100796.41;;;4.10;100.00
10310;BME280;5200;43.236;27.986;2023-03-01T15:00:25;100786.28;;;4.04;100.00
10310;BME280;5200;43.236;27.986;2023-03-01T15:02:56;100791.38;;;4.07;100.00
10310;BME280;5200;43.236;27.986;2023-03-01T15:05:27;100788.81;;;4.06;100.00
10310;BME280;5200;43.236;27.986;2023-03-01T15:07:57;100790.91;;;4.16;100.00
10310;BME280;5200;43.236;27.986;2023-03-01T15:10:27;100775.88;;;4.04;100.00
10310;BME280;5200;43.236;27.986;2023-03-01T15:12:54;100778.63;;;4.01;100.00
10310;BME280;5200;43.236;27.986;2023-03-01T15:15:34;100769.75;;;3.88;100.00
10310;BME280;5200;43.236;27.986;2023-03-01T15:18:04;100770.28;;;3.77;100.00
10310;BME280;5200;43.236;27.986;2023-03-01T15:20:34;100732.69;;;3.65;100.00
10310;BME280;5200;43.236;27.986;2023-03-01T15:23:03;100737.13;;;3.63;100.00
10310;BME280;5200;43.236;27.986;2023-03-01T15:25:36;100761.56;;;3.78;100.00
10310;BME280;5200;43.236;27.986;2023-03-01T15:28:04;100759.88;;;3.77;100.00
10310;BME280;5200;43.236;27.986;2023-03-01T15:30:33;100768.22;;;3.84;100.00
10310;BME280;5200;43.236;27.986;2023-03-01T15:33:25;100762.72;;;3.90;100.00
10310;BME280;5200;43.236;27.986;2023-03-01T15:35:56;100777.56;;;4.05;100.00
10310;BME280;5200;43.236;27.986;2023-03-01T15:38:33;100765.78;;;3.98;100.00
10310;BME280;5200;43.236;27.986;2023-03-01T15:41:02;100775.88;;;4.04;100.00
10310;BME280;5200;43.236;27.986;2023-03-01T15:43:43;100735.63;;;3.76;100.00
10310;BME280;5200;43.236;27.986;2023-03-01T15:46:28;100752.75;;;3.80;100.00
10310;BME280;5200;43.236;27.986;2023-03-01T15:48:58;100746.31;;;3.70;100.00
10310;BME280;5200;43.236;27.986;2023-03-01T15:51:35;100766.97;;;3.73;100.00
10310;BME280;5200;43.236;27.986;2023-03-01T15:54:05;100777.25;;;3.76;100.00
10310;BME280;5200;43.236;27.986;2023-03-01T15:56:33;100757.13;;;3.63;100.00
10310;BME280;5200;43.236;27.986;2023-03-01T15:59:01;100776.50;;;3.74;100.00
10310;BME280;5200;43.236;27.986;2023-03-01T16:01:29;100791.13;;;3.77;100.00
10310;BME280;5200;43.236;27.986;2023-03-01T16:03:56;100782.31;;;3.79;100.00
10310;BME280;5200;43.236;27.986;2023-03-01T16:06:24;100753.53;;;3.65;100.00
10310;BME280;5200;43.236;27.986;2023-03-01T16:08:52;100787.34;;;3.83;100.00
10310;BME280;5200;43.236;27.986;2023-03-01T16:11:20;100765.16;;;3.75;100.00
10310;BME280;5200;43.236;27.986;2023-03-01T16:13:47;100769.47;;;3.76;100.00
10310;BME280;5200;43.236;27.986;2023-03-01T16:16:15;100765.84;;;3.79;100.00
10310;BME280;5200;43.236;27.986;2023-03-01T16:18:43;100804.22;;;3.93;100.00
10310;BME280;5200;43.236;27.986;2023-03-01T16:21:13;100800.00;;;3.90;100.00
10310;BME280;5200;43.236;27.986;2023-03-01T16:23:41;100800.00;;;3.90;100.00
10310;BME280;5200;43.236;27.986;2023-03-01T16:26:10;100806.84;;;3.93;100.00
10310;BME280;5200;43.236;27.986;2023-03-01T16:28:37;100803.47;;;3.91;100.00
10310;BME280;5200;43.236;27.986;2023-03-01T16:31:04;100786.91;;;3.74;100.00
10310;BME280;5200;43.236;27.986;2023-03-01T16:33:31;100795.56;;;3.75;100.00
10310;BME280;5200;43.236;27.986;2023-03-01T16:35:57;100816.59;;;3.88;100.00
10310;BME280;5200;43.236;27.986;2023-03-01T16:38:25;100808.88;;;3.86;100.00
10310;BME280;5200;43.236;27.986;2023-03-01T16:40:52;100793.00;;;3.73;100.00
10310;BME280;5200;43.236;27.986;2023-03-01T16:43:20;100797.94;;;3.79;100.00
10310;BME280;5200;43.236;27.986;2023-03-01T16:45:47;100797.09;;;3.79;100.00
10310;BME280;5200;43.236;27.986;2023-03-01T16:48:14;100792.19;;;3.73;100.00
10310;BME280;5200;43.236;27.986;2023-03-01T16:50:41;100814.38;;;3.80;100.00
10310;BME280;5200;43.236;27.986;2023-03-01T16:53:08;100798.38;;;3.70;100.00
10310;BME280;5200;43.236;27.986;2023-03-01T16:55:36;100797.22;;;3.76;100.00
10310;BME280;5200;43.236;27.986;2023-03-01T16:58:03;100804.25;;;3.74;100.00
10310;BME280;5200;43.236;27.986;2023-03-01T17:00:32;100790.09;;;3.62;100.00
10310;BME280;5200;43.236;27.986;2023-03-01T17:03:01;100798.44;;;3.69;100.00
10310;BME280;5200;43.236;27.986;2023-03-01T17:05:27;100801.91;;;3.69;100.00
10310;BME280;5200;43.236;27.986;2023-03-01T17:07:54;100814.59;;;3.75;100.00
10310;BME280;5200;43.236;27.986;2023-03-01T17:10:25;100794.00;;;3.71;100.00
10310;BME280;5200;43.236;27.986;2023-03-01T17:12:52;100813.53;;;3.79;100.00
10310;BME280;5200;43.236;27.986;2023-03-01T17:15:19;100810.16;;;3.77;100.00
10310;BME280;5200;43.236;27.986;2023-03-01T17:17:51;100809.88;;;3.84;100.00
10310;BME280;5200;43.236;27.986;2023-03-01T17:20:19;100820.19;;;3.85;100.00
10310;BME280;5200;43.236;27.986;2023-03-01T17:22:46;100833.94;;;3.89;100.00
10310;BME280;5200;43.236;27.986;2023-03-01T17:25:14;100829.84;;;3.83;100.00
10310;BME280;5200;43.236;27.986;2023-03-01T17:27:44;100825.03;;;3.75;100.00
10310;BME280;5200;43.236;27.986;2023-03-01T17:30:13;100831.63;;;3.83;100.00
10310;BME280;5200;43.236;27.986;2023-03-01T17:32:40;100812.44;;;3.66;100.00
10310;BME280;5200;43.236;27.986;2023-03-01T17:35:10;100819.63;;;3.61;100.00
10310;BME280;5200;43.236;27.986;2023-03-01T17:37:38;100824.84;;;3.61;100.00
10310;BME280;5200;43.236;27.986;2023-03-01T17:40:06;100837.91;;;3.59;100.00
10310;BME280;5200;43.236;27.986;2023-03-01T17:42:33;100820.13;;;3.50;100.00
10310;BME280;5200;43.236;27.986;2023-03-01T17:45:00;100841.00;;;3.68;100.00
10310;BME280;5200;43.236;27.986;2023-03-01T17:47:27;100845.38;;;3.67;100.00
10310;BME280;5200;43.236;27.986;2023-03-01T17:49:56;100830.75;;;3.46;100.00
10310;BME280;5200;43.236;27.986;2023-03-01T17:52:26;100841.03;;;3.49;100.00
10310;BME280;5200;43.236;27.986;2023-03-01T17:54:54;100837.38;;;3.53;100.00
10310;BME280;5200;43.236;27.986;2023-03-01T17:57:21;100808.84;;;3.32;100.00
10310;BME280;5200;43.236;27.986;2023-03-01T17:59:52;100823.31;;;3.38;100.00
10310;BME280;5200;43.236;27.986;2023-03-01T18:02:19;100821.56;;;3.38;100.00
10310;BME280;5200;43.236;27.986;2023-03-01T18:04:46;100818.94;;;3.38;100.00
10310;BME280;5200;43.236;27.986;2023-03-01T18:07:14;100830.75;;;3.46;100.00
10310;BME280;5200;43.236;27.986;2023-03-01T18:09:44;100831.97;;;3.38;100.00
10310;BME280;5200;43.236;27.986;2023-03-01T18:12:12;100804.63;;;3.30;100.00
10310;BME280;5200;43.236;27.986;2023-03-01T18:14:39;100790.78;;;3.29;100.00
10310;BME280;5200;43.236;27.986;2023-03-01T18:17:06;100817.63;;;3.49;100.00
10310;BME280;5200;43.236;27.986;2023-03-01T18:19:36;100812.63;;;3.44;100.00
10310;BME280;5200;43.236;27.986;2023-03-01T18:22:08;100820.81;;;3.36;100.00
10310;BME280;5200;43.236;27.986;2023-03-01T18:24:35;100809.69;;;3.33;100.00
10310;BME280;5200;43.236;27.986;2023-03-01T18:27:04;100807.09;;;3.33;100.00
10310;BME280;5200;43.236;27.986;2023-03-01T18:29:31;100784.47;;;3.16;100.00
10310;BME280;5200;43.236;27.986;2023-03-01T18:31:58;100808.84;;;3.32;100.00
10310;BME280;5200;43.236;27.986;2023-03-01T18:34:25;100813.00;;;3.36;100.00
10310;BME280;5200;43.236;27.986;2023-03-01T18:36:55;100797.16;;;3.22;100.00
10310;BME280;5200;43.236;27.986;2023-03-01T18:39:24;100805.47;;;3.30;100.00
10310;BME280;5200;43.236;27.986;2023-03-01T18:41:56;100819.25;;;3.32;100.00
10310;BME280;5200;43.236;27.986;2023-03-01T18:44:27;100778.22;;;3.20;100.00
10310;BME280;5200;43.236;27.986;2023-03-01T18:46:54;100822.19;;;3.44;100.00
10310;BME280;5200;43.236;27.986;2023-03-01T18:49:23;100774.69;;;3.21;100.00
10310;BME280;5200;43.236;27.986;2023-03-01T18:51:53;100826.97;;;3.53;100.00
10310;BME280;5200;43.236;27.986;2023-03-01T18:54:21;100832.03;;;3.56;100.00
10310;BME280;5200;43.236;27.986;2023-03-01T18:56:50;100830.31;;;3.55;100.00
10310;BME280;5200;43.236;27.986;2023-03-01T18:59:17;100831.09;;;3.57;100.00
10310;BME280;5200;43.236;27.986;2023-03-01T19:01:46;100800.84;;;3.37;100.00
10310;BME280;5200;43.236;27.986;2023-03-01T19:04:16;100812.22;;;3.34;100.00
10310;BME280;5200;43.236;27.986;2023-03-01T19:06:43;100824.81;;;3.44;100.00
10310;BME280;5200;43.236;27.986;2023-03-01T19:09:10;100815.59;;;3.36;100.00
10310;BME280;5200;43.236;27.986;2023-03-01T19:11:40;100823.09;;;3.43;100.00
10310;BME280;5200;43.236;27.986;2023-03-01T19:14:07;100833.28;;;3.47;100.00
10310;BME280;5200;43.236;27.986;2023-03-01T19:16:37;100800.44;;;3.27;100.00
10310;BME280;5200;43.236;27.986;2023-03-01T19:19:05;100839.34;;;3.48;100.00
10310;BME280;5200;43.236;27.986;2023-03-01T19:21:34;100804.91;;;3.24;100.00
10310;BME280;5200;43.236;27.986;2023-03-01T19:24:03;100842.09;;;3.45;100.00
10310;BME280;5200;43.236;27.986;2023-03-01T19:26:34;100813.34;;;3.29;100.00